Time;durP1;ratioP1;P1;durP2;ratioP2;P2;SDS_P1;SDS_P2;PMS_P1;PMS_P2;Temp;Humidity;BMP_temperature;BMP_pressure;BME280_temperature;BME280_humidity;BME280_pressure;Samples;Min_cycle;Max_cycle;Signal;HPM_P1;HPM_P2
2022/12/08 00:00:46;;;;;;;6.68;1.42;;;;;;;;;;4952513;28;20059;-64
2022/12/08 00:03:16;;;;;;;3.08;1.98;;;;;;;;;;4904694;28;20054;-63
2022/12/08 00:11:24;;;;;;;6.03;1.83;;;;;;;;;;4952483;28;20058;-63
2022/12/08 00:13:54;;;;;;;7.53;2.20;;;;;;;;;;4979342;28;20066;-64
2022/12/08 00:16:24;;;;;;;6.80;2.20;;;;;;;;;;4961586;28;20054;-64
2022/12/08 00:18:53;;;;;;;6.57;2.38;;;;;;;;;;5010626;28;20522;-64
2022/12/08 00:21:23;;;;;;;4.47;2.10;;;;;;;;;;5007957;28;20196;-65
2022/12/08 00:23:55;;;;;;;6.65;2.38;;;;;;;;;;5030319;28;20054;-64
2022/12/08 00:26:25;;;;;;;;;;;;;;;;;;5075518;28;20713;-64
2022/12/08 00:28:55;;;;;;;5.30;2.08;;;;;;;;;;5023679;28;19920;-64
2022/12/08 00:31:24;;;;;;;5.50;1.70;;;;;;;;;;5093119;28;20055;-64
2022/12/08 00:33:54;;;;;;;4.38;1.60;;;;;;;;;;5086634;28;20122;-64
2022/12/08 00:36:24;;;;;;;7.57;2.40;;;;;;;;;;5050904;28;20063;-64
2022/12/08 00:38:54;;;;;;;4.43;1.48;;;;;;;;;;5041605;28;20056;-64
2022/12/08 00:44:17;;;;;;;6.50;1.73;;;;;;;;;;5040688;28;20407;-64
2022/12/08 00:46:48;;;;;;;5.88;2.80;;;;;;;;;;5092717;28;20510;-64
2022/12/08 00:49:17;;;;;;;5.57;2.40;;;;;;;;;;5092500;28;20052;-63
2022/12/08 00:51:49;;;;;;;5.90;2.28;;;;;;;;;;5091448;28;20492;-63
2022/12/08 00:54:21;;;;;;;6.97;2.55;;;;;;;;;;5092431;28;20663;-63
2022/12/08 00:56:52;;;;;;;9.90;2.53;;;;;;;;;;5091934;28;20518;-63
2022/12/08 00:59:21;;;;;;;6.63;1.85;;;;;;;;;;5056634;28;20048;-63
2022/12/08 01:01:51;;;;;;;4.28;2.00;;;;;;;;;;5029324;28;20054;-63
2022/12/08 01:04:21;;;;;;;8.73;2.38;;;;;;;;;;5029804;28;20064;-63
2022/12/08 01:06:51;;;;;;;5.05;3.97;;;;;;;;;;4996922;28;20097;-63
2022/12/08 01:09:21;;;;;;;5.90;2.58;;;;;;;;;;5029582;28;20088;-63
2022/12/08 01:11:51;;;;;;;6.38;2.80;;;;;;;;;;5029273;28;20060;-63
2022/12/08 01:14:21;;;;;;;7.82;3.63;;;;;;;;;;4996365;28;20058;-63
2022/12/08 01:16:51;;;;;;;5.05;2.90;;;;;;;;;;5029332;28;20056;-63
2022/12/08 01:19:20;;;;;;;4.80;2.80;;;;;;;;;;4970365;28;20046;-63
2022/12/08 01:21:50;;;;;;;6.35;2.50;;;;;;;;;;4951145;29;20404;-63
2022/12/08 01:24:20;;;;;;;7.05;3.20;;;;;;;;;;4935284;29;20055;-63
2022/12/08 01:26:50;;;;;;;6.90;2.92;;;;;;;;;;4951428;29;20063;-63
2022/12/08 01:29:20;;;;;;;5.32;2.72;;;;;;;;;;4950923;28;20443;-64
2022/12/08 01:31:49;;;;;;;6.30;3.53;;;;;;;;;;4935166;29;20055;-63
2022/12/08 01:34:19;;;;;;;9.07;3.15;;;;;;;;;;4919216;29;20063;-63
2022/12/08 01:36:49;;;;;;;8.23;3.38;;;;;;;;;;4950974;29;20055;-63
2022/12/08 01:39:18;;;;;;;8.30;3.80;;;;;;;;;;4976813;28;20065;-64
2022/12/08 01:41:48;;;;;;;7.93;3.75;;;;;;;;;;5009019;28;20046;-64
2022/12/08 01:44:18;;;;;;;7.18;3.20;;;;;;;;;;4944124;28;20062;-64
2022/12/08 01:46:47;;;;;;;5.05;3.67;;;;;;;;;;5028150;28;20073;-64
2022/12/08 01:49:30;;;;;;;6.90;3.40;;;;;;;;;;5012341;28;20057;-64
2022/12/08 01:52:06;;;;;;;7.03;3.63;;;;;;;;;;5028583;28;20521;-64
2022/12/08 01:54:44;;;;;;;9.27;2.83;;;;;;;;;;4995889;28;20509;-64
2022/12/08 01:57:22;;;;;;;7.57;3.75;;;;;;;;;;5018993;28;20571;-63
2022/12/08 02:00:07;;;;;;;6.07;3.70;;;;;;;;;;5011710;28;20048;-64
2022/12/08 02:02:57;;;;;;;10.13;4.05;;;;;;;;;;5027951;28;20049;-64
2022/12/08 02:05:32;;;;;;;9.15;3.95;;;;;;;;;;5028331;28;20050;-64
2022/12/08 02:08:05;;;;;;;7.95;3.47;;;;;;;;;;5028553;28;20068;-64
2022/12/08 02:10:40;;;;;;;10.00;3.47;;;;;;;;;;5028704;28;20057;-63
2022/12/08 02:13:16;;;;;;;8.40;3.75;;;;;;;;;;5028037;28;20045;-63
2022/12/08 02:16:07;;;;;;;7.65;3.40;;;;;;;;;;5028334;28;20053;-64
2022/12/08 02:18:51;;;;;;;11.02;3.67;;;;;;;;;;5028647;28;20053;-63
2022/12/08 02:22:13;;;;;;;10.50;3.70;;;;;;;;;;5028136;28;20045;-64
2022/12/08 02:24:53;;;;;;;7.28;3.88;;;;;;;;;;4988803;28;20581;-64
2022/12/08 02:27:59;;;;;;;5.68;3.35;;;;;;;;;;4972802;28;20050;-64
2022/12/08 02:30:53;;;;;;;8.38;3.97;;;;;;;;;;4994448;28;20117;-64
2022/12/08 02:34:03;;;;;;;6.80;3.40;;;;;;;;;;5008596;28;20061;-64
2022/12/08 02:36:35;;;;;;;11.05;4.00;;;;;;;;;;4988440;28;20050;-64
2022/12/08 02:39:08;;;;;;;7.82;3.70;;;;;;;;;;4988846;28;20130;-64
2022/12/08 02:41:54;;;;;;;7.78;4.10;;;;;;;;;;4988486;28;20058;-64
2022/12/08 02:44:53;;;;;;;6.57;4.10;;;;;;;;;;4972660;28;20410;-64
2022/12/08 02:47:24;;;;;;;7.45;3.92;;;;;;;;;;4988927;28;20058;-64
2022/12/08 02:49:57;;;;;;;7.28;2.95;;;;;;;;;;4972192;28;20512;-64
2022/12/08 02:52:26;;;;;;;8.50;3.70;;;;;;;;;;4988843;28;20070;-64
2022/12/08 02:55:01;;;;;;;9.38;3.67;;;;;;;;;;4988357;28;20058;-64
2022/12/08 02:57:38;;;;;;;8.65;4.15;;;;;;;;;;4972283;28;20054;-63
2022/12/08 03:00:10;;;;;;;8.32;4.22;;;;;;;;;;5004047;28;20073;-64
2022/12/08 03:03:02;;;;;;;7.85;4.15;;;;;;;;;;5010903;28;20055;-64
2022/12/08 03:05:59;;;;;;;10.20;4.90;;;;;;;;;;5067854;28;20056;-64
2022/12/08 03:08:55;;;;;;;9.68;3.50;;;;;;;;;;5034127;28;20626;-64
2022/12/08 03:11:47;;;;;;;10.75;4.38;;;;;;;;;;5067266;28;20511;-64
2022/12/08 03:14:20;;;;;;;11.00;3.78;;;;;;;;;;5056807;28;20070;-64
2022/12/08 03:16:55;;;;;;;6.53;3.55;;;;;;;;;;5078377;28;20058;-63
2022/12/08 03:19:38;;;;;;;7.72;3.42;;;;;;;;;;5114666;28;20035;-64
2022/12/08 03:22:09;;;;;;;7.75;3.78;;;;;;;;;;5114664;28;20066;-64
2022/12/08 03:24:43;;;;;;;5.75;4.00;;;;;;;;;;5114687;28;20047;-64
2022/12/08 03:27:19;;;;;;;6.53;4.22;;;;;;;;;;5114712;28;20044;-64
2022/12/08 03:29:52;;;;;;;9.90;4.70;;;;;;;;;;5114342;28;20097;-64
2022/12/08 03:32:43;;;;;;;8.55;4.07;;;;;;;;;;5074143;28;20066;-64
2022/12/08 03:35:16;;;;;;;5.70;3.70;;;;;;;;;;5057498;28;20059;-64
2022/12/08 03:37:46;;;;;;;10.30;4.10;;;;;;;;;;5057769;28;20411;-64
2022/12/08 03:40:19;;;;;;;9.65;3.40;;;;;;;;;;5091266;28;20404;-64
2022/12/08 03:42:49;;;;;;;7.90;3.95;;;;;;;;;;5074083;28;20048;-64
2022/12/08 03:45:18;;;;;;;8.00;4.40;;;;;;;;;;5040902;28;20067;-64
2022/12/08 03:47:48;;;;;;;8.73;4.00;;;;;;;;;;5091472;28;20044;-64
2022/12/08 03:50:18;;;;;;;10.23;5.43;;;;;;;;;;5074320;28;20056;-64
2022/12/08 03:52:48;;;;;;;5.82;3.53;;;;;;;;;;5091079;28;20044;-64
2022/12/08 03:55:18;;;;;;;10.65;3.95;;;;;;;;;;5053696;28;20072;-64
2022/12/08 03:57:48;;;;;;;6.40;4.72;;;;;;;;;;5054108;28;20044;-64
2022/12/08 04:00:17;;;;;;;5.82;3.58;;;;;;;;;;5070871;28;20064;-64
2022/12/08 04:02:47;;;;;;;8.30;3.92;;;;;;;;;;5054295;28;20420;-64
2022/12/08 04:05:17;;;;;;;6.28;3.97;;;;;;;;;;5037017;28;20045;-64
2022/12/08 04:07:47;;;;;;;8.93;3.65;;;;;;;;;;5013638;28;20410;-64
2022/12/08 04:10:16;;;;;;;6.63;4.28;;;;;;;;;;5030693;28;20053;-64
2022/12/08 04:12:46;;;;;;;6.40;4.63;;;;;;;;;;5030567;28;20086;-64
2022/12/08 04:15:15;;;;;;;7.07;3.88;;;;;;;;;;5013807;28;20540;-63
2022/12/08 04:17:45;;;;;;;7.65;3.42;;;;;;;;;;5030682;28;20053;-64
2022/12/08 04:20:14;;;;;;;5.47;3.45;;;;;;;;;;5030316;28;20057;-64
2022/12/08 04:22:44;;;;;;;8.07;3.58;;;;;;;;;;5030435;28;20646;-64
2022/12/08 04:25:14;;;;;;;7.15;3.70;;;;;;;;;;5030327;28;20501;-64
2022/12/08 04:27:43;;;;;;;9.98;4.70;;;;;;;;;;5028965;28;20057;-64
2022/12/08 04:30:13;;;;;;;10.45;4.50;;;;;;;;;;5010301;28;20090;-64
2022/12/08 04:32:42;;;;;;;8.15;4.55;;;;;;;;;;5010389;28;20058;-64
2022/12/08 04:35:15;;;;;;;9.18;4.90;;;;;;;;;;4961351;28;20054;-64
2022/12/08 04:37:45;;;;;;;9.02;3.60;;;;;;;;;;5010335;28;20073;-64
2022/12/08 04:40:15;;;;;;;8.55;3.20;;;;;;;;;;5010629;28;20054;-63
2022/12/08 04:42:45;;;;;;;9.75;3.13;;;;;;;;;;4994150;28;20066;-64
2022/12/08 04:45:15;;;;;;;8.75;4.30;;;;;;;;;;5027200;28;20512;-64
2022/12/08 04:47:44;;;;;;;5.75;3.67;;;;;;;;;;5049660;28;20493;-63
2022/12/08 04:50:14;;;;;;;8.48;3.83;;;;;;;;;;5009909;28;20072;-63
2022/12/08 04:52:43;;;;;;;8.45;3.53;;;;;;;;;;4977671;28;20065;-64
2022/12/08 04:55:13;;;;;;;8.40;4.00;;;;;;;;;;5009614;28;20998;-63
2022/12/08 04:57:44;;;;;;;10.88;4.80;;;;;;;;;;4976929;28;20054;-64
2022/12/08 05:00:15;;;;;;;5.72;4.03;;;;;;;;;;4990112;28;20051;-64
2022/12/08 05:02:45;;;;;;;8.02;3.45;;;;;;;;;;4957966;28;20526;-64
2022/12/08 05:05:15;;;;;;;6.18;3.40;;;;;;;;;;4957913;28;20058;-64
2022/12/08 05:07:44;;;;;;;6.57;3.85;;;;;;;;;;5008089;28;20225;-64
2022/12/08 05:10:14;;;;;;;6.50;3.85;;;;;;;;;;5012765;28;20058;-64
2022/12/08 05:12:43;;;;;;;7.82;4.13;;;;;;;;;;4996243;28;20061;-64
2022/12/08 05:15:13;;;;;;;6.80;3.53;;;;;;;;;;5029438;28;20432;-64
2022/12/08 05:17:43;;;;;;;6.93;3.60;;;;;;;;;;5029219;28;20053;-64
2022/12/08 05:20:12;;;;;;;7.03;3.15;;;;;;;;;;5029503;28;20068;-64
2022/12/08 05:22:42;;;;;;;9.68;4.05;;;;;;;;;;5012869;28;20067;-64
2022/12/08 05:25:12;;;;;;;8.38;3.78;;;;;;;;;;5012599;28;20057;-63
2022/12/08 05:27:42;;;;;;;10.13;4.03;;;;;;;;;;5055761;28;20071;-64
2022/12/08 05:30:12;;;;;;;7.25;3.03;;;;;;;;;;5089239;28;20044;-63
2022/12/08 05:32:41;;;;;;;11.27;3.38;;;;;;;;;;5089079;28;20071;-64
2022/12/08 05:35:11;;;;;;;7.00;3.40;;;;;;;;;;5039518;28;20052;-65
2022/12/08 05:37:40;;;;;;;8.52;3.50;;;;;;;;;;5098607;28;20499;-64
2022/12/08 05:40:10;;;;;;;7.07;4.47;;;;;;;;;;5112108;28;20047;-64
2022/12/08 05:42:40;;;;;;;9.85;4.10;;;;;;;;;;5059035;28;20063;-64
2022/12/08 05:45:10;;;;;;;7.80;3.15;;;;;;;;;;5075818;28;20054;-64
2022/12/08 05:47:40;;;;;;;6.28;3.83;;;;;;;;;;5111680;28;20051;-64
2022/12/08 05:50:10;;;;;;;5.50;3.72;;;;;;;;;;5048543;28;20060;-64
2022/12/08 05:52:39;;;;;;;6.88;2.92;;;;;;;;;;5048966;28;20417;-64
2022/12/08 05:55:09;;;;;;;7.45;3.85;;;;;;;;;;5031452;28;20413;-64
2022/12/08 05:57:39;;;;;;;7.05;3.20;;;;;;;;;;5016086;28;20049;-64
2022/12/08 06:00:09;;;;;;;5.55;2.83;;;;;;;;;;5031631;28;20064;-64
2022/12/08 06:02:40;;;;;;;7.05;3.30;;;;;;;;;;5015346;28;20061;-64
2022/12/08 06:05:10;;;;;;;9.55;4.60;;;;;;;;;;4966082;28;20045;-64
2022/12/08 06:07:40;;;;;;;7.22;3.10;;;;;;;;;;5032335;28;20045;-64
2022/12/08 06:10:10;;;;;;;7.28;3.60;;;;;;;;;;5008420;28;20151;-64
2022/12/08 06:12:40;;;;;;;6.50;4.03;;;;;;;;;;4959682;28;20449;-64
2022/12/08 06:15:10;;;;;;;7.13;3.30;;;;;;;;;;4975858;28;20065;-64
2022/12/08 06:17:40;;;;;;;7.60;3.03;;;;;;;;;;5008725;28;20493;-64
2022/12/08 06:20:09;;;;;;;13.05;3.50;;;;;;;;;;5010442;28;20049;-64
2022/12/08 06:22:39;;;;;;;6.47;3.53;;;;;;;;;;5067963;28;20411;-64
2022/12/08 06:25:09;;;;;;;8.68;4.03;;;;;;;;;;5034576;28;20052;-64
2022/12/08 06:27:39;;;;;;;5.65;3.45;;;;;;;;;;5018608;28;20063;-65
2022/12/08 06:30:08;;;;;;;6.43;4.13;;;;;;;;;;5067962;28;20064;-64
2022/12/08 06:32:38;;;;;;;10.75;3.47;;;;;;;;;;5034891;28;20056;-64
2022/12/08 06:35:08;;;;;;;7.32;3.80;;;;;;;;;;5068130;28;20060;-65
2022/12/08 06:37:37;;;;;;;8.93;3.70;;;;;;;;;;5051102;28;20056;-65
2022/12/08 06:40:08;;;;;;;5.25;2.72;;;;;;;;;;5051390;28;20574;-64
2022/12/08 06:42:44;;;;;;;6.30;3.55;;;;;;;;;;5111100;28;20059;-64
2022/12/08 06:45:16;;;;;;;5.93;3.83;;;;;;;;;;5111274;28;20039;-64
2022/12/08 06:47:46;;;;;;;7.97;3.85;;;;;;;;;;5111434;28;20509;-64
2022/12/08 06:50:15;;;;;;;6.68;3.67;;;;;;;;;;5049136;28;20057;-64
2022/12/08 06:52:46;;;;;;;6.95;3.60;;;;;;;;;;5051981;28;20513;-64
2022/12/08 06:55:30;;;;;;;10.07;3.67;;;;;;;;;;5051432;28;20057;-64
2022/12/08 06:58:20;;;;;;;6.40;3.58;;;;;;;;;;5051884;28;20045;-64
2022/12/08 07:00:50;;;;;;;7.28;3.08;;;;;;;;;;5051926;28;20044;-64
2022/12/08 07:03:20;;;;;;;8.77;3.10;;;;;;;;;;5002189;28;20068;-64
2022/12/08 07:05:54;;;;;;;7.70;4.43;;;;;;;;;;5018599;28;20524;-64
2022/12/08 07:08:32;;;;;;;7.28;3.13;;;;;;;;;;5051742;28;20057;-64
2022/12/08 07:11:09;;;;;;;7.53;3.60;;;;;;;;;;5002320;28;20061;-64
2022/12/08 07:13:45;;;;;;;6.38;3.80;;;;;;;;;;5011806;28;20042;-65
2022/12/08 07:16:15;;;;;;;9.43;3.28;;;;;;;;;;4963091;28;20085;-65
2022/12/08 07:18:45;;;;;;;5.03;3.50;;;;;;;;;;4962763;28;20062;-65
2022/12/08 07:21:15;;;;;;;8.27;3.33;;;;;;;;;;5011812;28;20099;-65
2022/12/08 07:23:48;;;;;;;12.02;5.32;;;;;;;;;;4995951;28;20072;-65
2022/12/08 07:26:26;;;;;;;8.38;3.67;;;;;;;;;;4963022;28;20053;-65
2022/12/08 07:28:55;;;;;;;6.85;3.25;;;;;;;;;;5027967;28;20461;-65
2022/12/08 07:31:27;;;;;;;11.77;3.83;;;;;;;;;;4998723;28;20456;-65
2022/12/08 07:33:57;;;;;;;9.00;3.60;;;;;;;;;;5030999;28;20061;-64
2022/12/08 07:36:27;;;;;;;10.23;3.88;;;;;;;;;;5011497;28;20591;-64
2022/12/08 07:38:57;;;;;;;5.43;3.65;;;;;;;;;;5011632;28;20061;-64
2022/12/08 07:41:27;;;;;;;5.72;3.17;;;;;;;;;;4979150;28;20469;-64
2022/12/08 07:43:56;;;;;;;7.30;3.03;;;;;;;;;;4995494;28;20517;-64
2022/12/08 07:46:26;;;;;;;5.88;3.83;;;;;;;;;;4979260;28;20058;-65
2022/12/08 07:48:56;;;;;;;6.35;3.70;;;;;;;;;;5011518;28;20049;-64
2022/12/08 07:51:26;;;;;;;6.43;2.92;;;;;;;;;;4982648;28;20532;-64
2022/12/08 07:53:55;;;;;;;4.93;3.00;;;;;;;;;;5034150;28;20064;-64
2022/12/08 07:56:25;;;;;;;8.45;3.30;;;;;;;;;;5020159;28;20060;-64
2022/12/08 07:58:55;;;;;;;19.35;4.55;;;;;;;;;;4981753;28;20623;-64
2022/12/08 08:01:27;;;;;;;6.10;3.42;;;;;;;;;;5030451;28;20065;-64
2022/12/08 08:04:00;;;;;;;7.32;3.88;;;;;;;;;;4980740;28;20054;-64
2022/12/08 08:06:32;;;;;;;8.32;3.58;;;;;;;;;;5030517;28;20084;-64
2022/12/08 08:09:04;;;;;;;9.00;3.78;;;;;;;;;;5014668;28;20052;-64
2022/12/08 08:11:33;;;;;;;6.18;3.28;;;;;;;;;;5030704;28;20057;-64
2022/12/08 08:14:03;;;;;;;8.38;3.60;;;;;;;;;;5007282;28;20053;-64
2022/12/08 08:16:33;;;;;;;9.02;3.97;;;;;;;;;;5017230;28;20492;-64
2022/12/08 08:19:06;;;;;;;6.00;2.97;;;;;;;;;;5001400;28;20365;-64
2022/12/08 08:21:35;;;;;;;9.93;3.97;;;;;;;;;;5033429;28;20060;-64
2022/12/08 08:24:13;;;;;;;8.93;3.10;;;;;;;;;;5050192;28;20045;-64
2022/12/08 08:26:43;;;;;;;6.72;3.35;;;;;;;;;;5050098;28;20084;-64
2022/12/08 08:29:13;;;;;;;7.57;3.65;;;;;;;;;;5050373;28;20071;-64
2022/12/08 08:31:43;;;;;;;7.22;3.58;;;;;;;;;;5033601;28;20064;-64
2022/12/08 08:34:13;;;;;;;5.03;3.63;;;;;;;;;;5062746;28;20060;-64
2022/12/08 08:36:42;;;;;;;12.23;4.18;;;;;;;;;;5072407;28;20053;-64
2022/12/08 08:39:13;;;;;;;7.70;3.78;;;;;;;;;;5087039;28;20056;-64
2022/12/08 08:41:42;;;;;;;6.63;4.25;;;;;;;;;;5069754;28;20057;-64
2022/12/08 08:44:13;;;;;;;5.68;3.13;;;;;;;;;;5020006;28;20755;-64
2022/12/08 08:46:43;;;;;;;7.95;3.03;;;;;;;;;;5036071;28;20051;-64
2022/12/08 08:49:13;;;;;;;8.50;2.90;;;;;;;;;;5036604;28;20053;-64
2022/12/08 08:51:43;;;;;;;7.18;3.97;;;;;;;;;;5069653;28;20057;-65
2022/12/08 08:54:12;;;;;;;6.90;3.38;;;;;;;;;;5069911;28;20048;-64
2022/12/08 08:56:42;;;;;;;6.90;3.70;;;;;;;;;;5019433;28;20159;-65
2022/12/08 08:59:12;;;;;;;8.73;3.67;;;;;;;;;;5036174;28;20064;-65
2022/12/08 09:01:41;;;;;;;6.60;3.05;;;;;;;;;;5052805;28;20063;-65
2022/12/08 09:04:11;;;;;;;6.97;2.88;;;;;;;;;;5052705;28;20049;-65
2022/12/08 09:06:44;;;;;;;6.93;3.40;;;;;;;;;;5069448;28;20052;-65
2022/12/08 09:09:15;;;;;;;10.35;4.00;;;;;;;;;;5069713;28;20051;-65
2022/12/08 09:11:45;;;;;;;7.60;2.55;;;;;;;;;;5035910;28;20052;-65
2022/12/08 09:14:15;;;;;;;7.22;3.38;;;;;;;;;;5086152;28;20059;-65
2022/12/08 09:16:45;;;;;;;8.45;3.33;;;;;;;;;;5069568;28;20060;-66
2022/12/08 09:19:15;;;;;;;7.53;2.72;;;;;;;;;;5071761;28;20048;-65
2022/12/08 09:21:45;;;;;;;6.13;3.30;;;;;;;;;;5071611;28;20047;-65
2022/12/08 09:24:15;;;;;;;8.52;3.05;;;;;;;;;;5071930;28;20051;-65
2022/12/08 09:26:45;;;;;;;9.32;2.90;;;;;;;;;;5069263;28;20492;-65
2022/12/08 09:29:16;;;;;;;8.98;2.97;;;;;;;;;;5086057;28;20052;-65
2022/12/08 09:31:46;;;;;;;7.20;2.70;;;;;;;;;;5036167;28;20488;-65
2022/12/08 09:34:16;;;;;;;5.68;2.78;;;;;;;;;;5035943;28;20496;-65
2022/12/08 09:36:46;;;;;;;6.45;3.58;;;;;;;;;;5052363;28;20063;-65
2022/12/08 09:39:15;;;;;;;9.13;3.50;;;;;;;;;;5071580;28;20044;-66
2022/12/08 09:41:49;;;;;;;7.40;3.40;;;;;;;;;;5068405;28;20056;-65
2022/12/08 09:44:40;;;;;;;8.52;3.50;;;;;;;;;;5068870;28;20059;-65
2022/12/08 09:47:41;;;;;;;4.72;3.20;;;;;;;;;;5035912;28;20061;-65
2022/12/08 09:50:29;;;;;;;9.65;3.33;;;;;;;;;;5035088;28;20044;-65
2022/12/08 09:53:11;;;;;;;6.25;3.38;;;;;;;;;;5068880;28;20491;-65
2022/12/08 09:55:44;;;;;;;5.10;2.97;;;;;;;;;;5067880;28;20060;-65
2022/12/08 09:58:50;;;;;;;5.15;3.53;;;;;;;;;;5068732;28;20048;-65
2022/12/08 10:01:26;;;;;;;4.97;2.85;;;;;;;;;;5028661;28;20053;-64
2022/12/08 10:03:56;;;;;;;6.43;2.88;;;;;;;;;;5028549;28;20575;-66
2022/12/08 10:07:06;;;;;;;5.47;3.20;;;;;;;;;;5028578;28;20053;-65
2022/12/08 10:09:51;;;;;;;8.23;3.78;;;;;;;;;;4953539;28;20058;-65
2022/12/08 10:12:25;;;;;;;10.55;3.55;;;;;;;;;;4969619;28;20778;-66
2022/12/08 10:15:16;;;;;;;6.72;3.22;;;;;;;;;;4969865;28;20061;-66
2022/12/08 10:17:50;;;;;;;10.02;3.92;;;;;;;;;;4969724;28;20058;-65
2022/12/08 10:20:30;;;;;;;7.05;3.20;;;;;;;;;;4971038;28;20062;-66
2022/12/08 10:23:17;;;;;;;10.98;4.05;;;;;;;;;;4988969;28;20069;-66
2022/12/08 10:25:52;;;;;;;14.43;3.97;;;;;;;;;;4988209;28;20059;-65
2022/12/08 10:28:22;;;;;;;7.28;3.30;;;;;;;;;;4972526;28;20598;-66
2022/12/08 10:30:52;;;;;;;10.10;3.42;;;;;;;;;;4940280;28;20054;-65
2022/12/08 10:33:23;;;;;;;5.88;3.22;;;;;;;;;;4959367;28;20469;-66
2022/12/08 10:35:57;;;;;;;7.05;3.00;;;;;;;;;;4988772;28;20050;-65
2022/12/08 10:38:34;;;;;;;5.97;2.78;;;;;;;;;;4973430;28;20543;-65
2022/12/08 10:41:10;;;;;;;5.47;2.95;;;;;;;;;;4988765;28;20065;-65
2022/12/08 10:43:48;;;;;;;9.70;3.17;;;;;;;;;;4988771;28;20187;-65
2022/12/08 10:46:24;;;;;;;6.05;2.25;;;;;;;;;;4952185;28;20073;-65
2022/12/08 10:49:06;;;;;;;4.88;2.20;;;;;;;;;;5008463;28;20061;-65
2022/12/08 10:51:42;;;;;;;60.67;28.58;;;;;;;;;;5008344;28;20417;-65
2022/12/08 10:54:34;;;;;;;4.90;1.83;;;;;;;;;;5008139;28;20061;-65
2022/12/08 10:57:04;;;;;;;8.50;2.72;;;;;;;;;;5007508;28;20060;-65
2022/12/08 10:59:34;;;;;;;3.40;2.05;;;;;;;;;;4984767;28;20061;-65
2022/12/08 11:02:17;;;;;;;3.95;2.00;;;;;;;;;;4953028;28;20063;-65
2022/12/08 11:04:57;;;;;;;5.60;2.50;;;;;;;;;;4969159;28;20059;-65
2022/12/08 11:07:28;;;;;;;3.63;1.83;;;;;;;;;;4925268;28;20055;-65
2022/12/08 11:09:59;;;;;;;6.28;3.03;;;;;;;;;;5008222;28;20058;-65
2022/12/08 11:12:31;;;;;;;3.17;1.70;;;;;;;;;;4976915;28;20062;-66
2022/12/08 11:15:02;;;;;;;4.53;1.60;;;;;;;;;;5028022;28;20489;-65
2022/12/08 11:17:38;;;;;;;3.65;1.92;;;;;;;;;;4995293;28;20076;-65
2022/12/08 11:20:09;;;;;;;4.78;1.40;;;;;;;;;;5028076;28;20413;-66
2022/12/08 11:22:43;;;;;;;3.67;1.63;;;;;;;;;;4994874;28;20068;-66
2022/12/08 11:25:23;;;;;;;5.20;1.63;;;;;;;;;;5027509;28;20056;-65
2022/12/08 11:28:01;;;;;;;3.38;2.65;;;;;;;;;;5027586;28;20054;-66
2022/12/08 11:30:36;;;;;;;4.20;2.28;;;;;;;;;;4978882;28;20049;-66
2022/12/08 11:33:27;;;;;;;5.63;1.50;;;;;;;;;;5027624;28;20052;-65
2022/12/08 11:36:02;;;;;;;6.57;1.98;;;;;;;;;;4953719;28;20474;-65
2022/12/08 11:38:36;;;;;;;3.80;1.73;;;;;;;;;;4991922;28;20066;-65
2022/12/08 11:41:20;;;;;;;5.03;2.25;;;;;;;;;;4991730;28;20054;-66
2022/12/08 11:44:04;;;;;;;4.55;1.33;;;;;;;;;;4991710;28;20425;-65
2022/12/08 11:46:50;;;;;;;3.25;1.50;;;;;;;;;;4975210;28;20208;-66
2022/12/08 11:49:20;;;;;;;3.03;1.55;;;;;;;;;;4942801;28;20646;-66
2022/12/08 11:52:16;;;;;;;3.20;1.73;;;;;;;;;;4959184;28;20077;-66
2022/12/08 11:55:01;;;;;;;2.95;2.03;;;;;;;;;;4991774;28;20538;-66
2022/12/08 11:57:31;;;;;;;5.07;1.70;;;;;;;;;;4991448;28;20409;-66
2022/12/08 12:00:02;;;;;;;2.80;1.48;;;;;;;;;;4991449;28;20058;-66
2022/12/08 12:02:44;;;;;;;3.35;1.60;;;;;;;;;;4999771;28;20061;-65
2022/12/08 12:05:30;;;;;;;5.35;1.73;;;;;;;;;;5010891;28;20514;-65
2022/12/08 12:08:57;;;;;;;3.47;1.85;;;;;;;;;;5011135;28;20050;-66
2022/12/08 12:12:15;;;;;;;4.40;2.10;;;;;;;;;;4962079;28;20046;-66
2022/12/08 12:15:03;;;;;;;3.83;2.47;;;;;;;;;;5020887;28;20487;-66
2022/12/08 12:17:47;;;;;;;3.25;1.73;;;;;;;;;;5010790;28;20054;-66
2022/12/08 12:20:31;;;;;;;5.78;1.35;;;;;;;;;;5030425;28;20058;-66
2022/12/08 12:23:28;;;;;;;3.92;1.65;;;;;;;;;;4981454;28;20064;-66
2022/12/08 12:26:04;;;;;;;4.05;2.30;;;;;;;;;;4997134;28;20060;-66
2022/12/08 12:28:51;;;;;;;4.22;2.60;;;;;;;;;;5030000;28;20564;-66
2022/12/08 12:31:28;;;;;;;3.28;1.90;;;;;;;;;;5030506;28;20050;-66
2022/12/08 12:34:16;;;;;;;8.73;1.88;;;;;;;;;;5010190;28;20602;-66
2022/12/08 12:36:54;;;;;;;5.30;2.00;;;;;;;;;;4980358;28;20065;-66
2022/12/08 12:39:30;;;;;;;4.28;1.80;;;;;;;;;;5010258;28;20437;-65
2022/12/08 12:42:02;;;;;;;5.88;2.17;;;;;;;;;;5010153;28;20057;-64
2022/12/08 12:44:34;;;;;;;6.78;2.30;;;;;;;;;;4961547;28;20050;-67
2022/12/08 12:47:10;;;;;;;4.45;1.70;;;;;;;;;;5009250;28;20429;-66
2022/12/08 12:49:39;;;;;;;3.42;2.13;;;;;;;;;;5010200;28;20069;-66
2022/12/08 12:52:14;;;;;;;7.13;2.92;;;;;;;;;;5006144;28;20050;-66
2022/12/08 12:55:04;;;;;;;4.10;2.20;;;;;;;;;;5002769;28;20057;-66
2022/12/08 12:58:02;;;;;;;2.60;1.70;;;;;;;;;;4999656;28;20057;-66
2022/12/08 13:00:32;;;;;;;5.32;2.85;;;;;;;;;;4990440;28;20565;-66
2022/12/08 13:03:02;;;;;;;4.05;2.15;;;;;;;;;;4970736;28;20054;-66
2022/12/08 13:05:49;;;;;;;7.95;5.47;;;;;;;;;;4944812;29;20062;-66
2022/12/08 13:08:22;;;;;;;3.40;1.70;;;;;;;;;;4951477;29;20058;-66
2022/12/08 13:11:03;;;;;;;5.85;1.30;;;;;;;;;;4951271;29;20436;-66
2022/12/08 13:13:34;;;;;;;5.05;1.95;;;;;;;;;;4935593;29;20059;-66
2022/12/08 13:16:14;;;;;;;3.15;1.85;;;;;;;;;;4935654;29;20167;-66
2022/12/08 13:18:52;;;;;;;3.53;1.20;;;;;;;;;;4951767;29;20665;-66
2022/12/08 13:21:24;;;;;;;7.45;1.70;;;;;;;;;;4951330;29;20389;-67
2022/12/08 13:24:18;;;;;;;4.30;1.55;;;;;;;;;;4951313;29;20059;-66
2022/12/08 13:27:10;;;;;;;2.60;1.40;;;;;;;;;;4935037;29;20055;-66
2022/12/08 13:29:40;;;;;;;2.63;1.58;;;;;;;;;;4893951;29;20064;-66
2022/12/08 13:32:09;;;;;;;2.13;1.15;;;;;;;;;;4878434;29;20057;-67
2022/12/08 13:34:54;;;;;;;1.42;1.00;;;;;;;;;;4893910;29;20413;-66
2022/12/08 13:37:59;;;;;;;2.33;1.50;;;;;;;;;;4912327;29;20059;-66
2022/12/08 13:40:33;;;;;;;4.78;1.77;;;;;;;;;;4875352;29;20076;-66
2022/12/08 13:43:12;;;;;;;5.25;1.52;;;;;;;;;;4921225;29;20063;-66
2022/12/08 13:45:44;;;;;;;2.75;1.50;;;;;;;;;;4946783;29;20051;-66
2022/12/08 13:48:56;;;;;;;6.95;1.35;;;;;;;;;;4915677;29;20133;-66
2022/12/08 13:51:51;;;;;;;2.50;1.27;;;;;;;;;;4931887;29;20668;-66
2022/12/08 13:54:41;;;;;;;2.70;1.27;;;;;;;;;;4919248;29;20067;-66
2022/12/08 13:57:36;;;;;;;1.88;1.35;;;;;;;;;;4931570;29;20067;-66
2022/12/08 14:00:33;;;;;;;1.77;1.00;;;;;;;;;;4931536;29;20074;-66
2022/12/08 14:03:03;;;;;;;1.67;1.08;;;;;;;;;;4846667;29;20067;-66
2022/12/08 14:05:41;;;;;;;3.88;1.13;;;;;;;;;;4893603;29;20053;-67
2022/12/08 14:08:33;;;;;;;1.63;1.00;;;;;;;;;;4931381;29;20056;-63
2022/12/08 14:11:34;;;;;;;2.30;1.25;;;;;;;;;;4931422;29;20043;-64
2022/12/08 14:14:08;;;;;;;3.08;1.60;;;;;;;;;;4915328;29;20547;-64
2022/12/08 14:16:41;;;;;;;2.05;1.00;;;;;;;;;;4972264;28;20076;-64
2022/12/08 14:19:21;;;;;;;3.67;2.35;;;;;;;;;;5028549;28;20048;-64
2022/12/08 14:21:55;;;;;;;2.40;1.10;;;;;;;;;;5028206;28;20555;-64
2022/12/08 14:24:27;;;;;;;2.38;1.30;;;;;;;;;;5011706;28;20049;-64
2022/12/08 14:27:05;;;;;;;2.90;1.20;;;;;;;;;;5028058;28;20053;-64
2022/12/08 14:29:57;;;;;;;1.67;1.27;;;;;;;;;;5011578;28;20497;-64
2022/12/08 14:32:30;;;;;;;3.58;1.50;;;;;;;;;;5028253;28;20053;-64
2022/12/08 14:35:09;;;;;;;1.20;0.95;;;;;;;;;;5028218;28;20057;-65
2022/12/08 14:37:45;;;;;;;1.77;1.30;;;;;;;;;;5028109;28;20041;-64
2022/12/08 14:40:18;;;;;;;3.30;1.75;;;;;;;;;;5034252;28;20054;-64
2022/12/08 14:43:04;;;;;;;2.10;1.40;;;;;;;;;;5111240;28;20510;-64
2022/12/08 14:45:45;;;;;;;15.10;1.83;;;;;;;;;;5075113;28;20051;-64
2022/12/08 14:48:26;;;;;;;5.18;1.77;;;;;;;;;;5041331;28;20066;-64
2022/12/08 14:51:17;;;;;;;1.63;1.35;;;;;;;;;;5075285;28;20056;-64
2022/12/08 14:54:13;;;;;;;2.42;1.77;;;;;;;;;;5074918;28;20055;-64
2022/12/08 14:56:53;;;;;;;1.20;0.90;;;;;;;;;;5057886;28;20056;-64
2022/12/08 14:59:29;;;;;;;2.42;0.98;;;;;;;;;;5111246;28;20075;-64
2022/12/08 15:02:24;;;;;;;3.35;1.00;;;;;;;;;;5111102;28;20059;-63
2022/12/08 15:05:16;;;;;;;2.20;1.42;;;;;;;;;;5111166;28;20047;-63
2022/12/08 15:07:58;;;;;;;3.95;1.38;;;;;;;;;;5110848;28;20047;-65
2022/12/08 15:10:36;;;;;;;3.40;1.42;;;;;;;;;;5076043;28;20411;-64
2022/12/08 15:13:21;;;;;;;3.20;1.20;;;;;;;;;;5115033;28;20054;-64
2022/12/08 15:15:56;;;;;;;4.30;1.65;;;;;;;;;;5114956;28;20032;-64
2022/12/08 15:18:39;;;;;;;1.63;1.25;;;;;;;;;;5062104;28;20056;-64
2022/12/08 15:21:11;;;;;;;2.45;1.20;;;;;;;;;;5097304;28;20050;-64
2022/12/08 15:23:47;;;;;;;1.83;1.50;;;;;;;;;;5078291;28;20059;-63
2022/12/08 15:26:23;;;;;;;2.88;1.10;;;;;;;;;;5079134;28;20050;-64
2022/12/08 15:28:54;;;;;;;1.55;1.35;;;;;;;;;;5061740;28;20712;-64
2022/12/08 15:31:23;;;;;;;2.85;1.92;;;;;;;;;;5114906;28;20047;-63
2022/12/08 15:33:53;;;;;;;2.33;1.13;;;;;;;;;;5037507;28;20049;-64
2022/12/08 15:36:23;;;;;;;1.40;1.13;;;;;;;;;;5071236;28;20080;-64
2022/12/08 15:38:53;;;;;;;4.93;1.00;;;;;;;;;;5071498;28;20144;-64
2022/12/08 15:41:22;;;;;;;1.10;0.75;;;;;;;;;;5071277;28;20071;-64